sensor_id;sensor_type;location;lat;lon;timestamp;temperature;humidity
68764;DHT22;55754;52.038;5.566;2022-12-13T00:00:29;-2.10;92.80
68764;DHT22;55754;52.038;5.566;2022-12-13T00:02:57;-2.00;92.80
68764;DHT22;55754;52.038;5.566;2022-12-13T00:05:22;-2.00;92.80
68764;DHT22;55754;52.038;5.566;2022-12-13T00:07:48;-2.00;92.80
68764;DHT22;55754;52.038;5.566;2022-12-13T00:10:14;-2.10;92.70
68764;DHT22;55754;52.038;5.566;2022-12-13T00:12:39;-2.10;92.80
68764;DHT22;55754;52.038;5.566;2022-12-13T00:15:05;-2.10;92.90
68764;DHT22;55754;52.038;5.566;2022-12-13T00:17:32;-2.10;92.70
68764;DHT22;55754;52.038;5.566;2022-12-13T00:19:58;-2.10;92.70
68764;DHT22;55754;52.038;5.566;2022-12-13T00:22:23;-2.20;92.60
68764;DHT22;55754;52.038;5.566;2022-12-13T00:24:49;-2.20;92.70
68764;DHT22;55754;52.038;5.566;2022-12-13T00:27:14;-2.20;92.70
68764;DHT22;55754;52.038;5.566;2022-12-13T00:29:40;-2.20;92.50
68764;DHT22;55754;52.038;5.566;2022-12-13T00:32:06;-2.30;92.50
68764;DHT22;55754;52.038;5.566;2022-12-13T00:34:31;-2.30;92.40
68764;DHT22;55754;52.038;5.566;2022-12-13T00:36:57;-2.30;92.50
68764;DHT22;55754;52.038;5.566;2022-12-13T00:39:23;-2.30;92.60
68764;DHT22;55754;52.038;5.566;2022-12-13T00:41:49;-2.30;92.70
68764;DHT22;55754;52.038;5.566;2022-12-13T00:44:14;-2.30;92.70
68764;DHT22;55754;52.038;5.566;2022-12-13T00:46:41;-2.40;92.60
68764;DHT22;55754;52.038;5.566;2022-12-13T00:49:08;-2.40;92.50
68764;DHT22;55754;52.038;5.566;2022-12-13T00:51:33;-2.40;92.60
68764;DHT22;55754;52.038;5.566;2022-12-13T00:54:00;-2.40;92.70
68764;DHT22;55754;52.038;5.566;2022-12-13T00:56:28;-2.40;92.70
68764;DHT22;55754;52.038;5.566;2022-12-13T00:58:54;-2.50;92.60
68764;DHT22;55754;52.038;5.566;2022-12-13T01:01:22;-2.50;92.70
68764;DHT22;55754;52.038;5.566;2022-12-13T01:03:48;-2.20;92.60
68764;DHT22;55754;52.038;5.566;2022-12-13T01:06:17;-2.60;92.60
68764;DHT22;55754;52.038;5.566;2022-12-13T01:08:43;-2.60;92.60
68764;DHT22;55754;52.038;5.566;2022-12-13T01:11:10;-2.50;92.80
68764;DHT22;55754;52.038;5.566;2022-12-13T01:13:36;-2.50;92.80
68764;DHT22;55754;52.038;5.566;2022-12-13T01:16:07;-2.50;92.60
68764;DHT22;55754;52.038;5.566;2022-12-13T01:18:34;-2.50;92.60
68764;DHT22;55754;52.038;5.566;2022-12-13T01:21:13;-2.60;92.60
68764;DHT22;55754;52.038;5.566;2022-12-13T01:23:41;-2.60;92.50
68764;DHT22;55754;52.038;5.566;2022-12-13T01:26:10;-2.60;92.60
68764;DHT22;55754;52.038;5.566;2022-12-13T01:28:36;-2.60;92.50
68764;DHT22;55754;52.038;5.566;2022-12-13T01:31:13;-2.60;92.50
68764;DHT22;55754;52.038;5.566;2022-12-13T01:33:40;-2.60;92.50
68764;DHT22;55754;52.038;5.566;2022-12-13T01:36:10;-2.70;92.40
68764;DHT22;55754;52.038;5.566;2022-12-13T01:38:36;-2.70;92.50
68764;DHT22;55754;52.038;5.566;2022-12-13T01:41:02;-2.70;92.50
68764;DHT22;55754;52.038;5.566;2022-12-13T01:43:48;-2.80;92.40
68764;DHT22;55754;52.038;5.566;2022-12-13T01:46:16;-2.80;92.40
68764;DHT22;55754;52.038;5.566;2022-12-13T01:48:48;-2.80;92.50
68764;DHT22;55754;52.038;5.566;2022-12-13T01:51:16;-2.80;92.60
68764;DHT22;55754;52.038;5.566;2022-12-13T01:53:45;-2.80;92.70
68764;DHT22;55754;52.038;5.566;2022-12-13T01:56:18;-2.80;92.60
68764;DHT22;55754;52.038;5.566;2022-12-13T01:58:44;-2.80;92.70
68764;DHT22;55754;52.038;5.566;2022-12-13T02:01:11;-2.80;92.70
68764;DHT22;55754;52.038;5.566;2022-12-13T02:03:37;-2.80;92.70
68764;DHT22;55754;52.038;5.566;2022-12-13T02:06:33;-2.80;92.40
68764;DHT22;55754;52.038;5.566;2022-12-13T02:08:59;-2.80;92.40
68764;DHT22;55754;52.038;5.566;2022-12-13T02:11:26;-2.80;92.40
68764;DHT22;55754;52.038;5.566;2022-12-13T02:13:52;-2.80;92.40
68764;DHT22;55754;52.038;5.566;2022-12-13T02:22:03;-2.80;92.50
68764;DHT22;55754;52.038;5.566;2022-12-13T02:27:36;-2.90;92.60
68764;DHT22;55754;52.038;5.566;2022-12-13T02:30:18;-2.90;92.60
68764;DHT22;55754;52.038;5.566;2022-12-13T02:35:25;-2.90;92.60
68764;DHT22;55754;52.038;5.566;2022-12-13T02:37:56;-3.00;92.30
68764;DHT22;55754;52.038;5.566;2022-12-13T02:40:34;-3.00;92.50
68764;DHT22;55754;52.038;5.566;2022-12-13T02:43:21;-3.00;92.40
68764;DHT22;55754;52.038;5.566;2022-12-13T02:45:50;-3.00;92.40
68764;DHT22;55754;52.038;5.566;2022-12-13T02:48:23;-3.00;92.50
68764;DHT22;55754;52.038;5.566;2022-12-13T02:50:50;-3.00;92.50
68764;DHT22;55754;52.038;5.566;2022-12-13T02:53:18;-3.00;92.30
68764;DHT22;55754;52.038;5.566;2022-12-13T02:55:46;-3.00;92.40
68764;DHT22;55754;52.038;5.566;2022-12-13T02:58:22;-3.00;92.60
68764;DHT22;55754;52.038;5.566;2022-12-13T03:09:25;-3.10;92.30
68764;DHT22;55754;52.038;5.566;2022-12-13T03:14:53;-3.10;92.50
68764;DHT22;55754;52.038;5.566;2022-12-13T03:17:22;-3.10;92.30
68764;DHT22;55754;52.038;5.566;2022-12-13T03:19:53;-3.10;92.40
68764;DHT22;55754;52.038;5.566;2022-12-13T03:22:19;-3.20;92.50
68764;DHT22;55754;52.038;5.566;2022-12-13T03:24:45;-3.10;92.50
68764;DHT22;55754;52.038;5.566;2022-12-13T03:27:11;-3.20;92.40
68764;DHT22;55754;52.038;5.566;2022-12-13T03:29:38;-3.10;92.50
68764;DHT22;55754;52.038;5.566;2022-12-13T03:32:03;-3.10;92.50
68764;DHT22;55754;52.038;5.566;2022-12-13T03:34:29;-3.20;92.30
68764;DHT22;55754;52.038;5.566;2022-12-13T03:36:54;-3.20;92.40
68764;DHT22;55754;52.038;5.566;2022-12-13T03:39:21;-3.20;92.40
68764;DHT22;55754;52.038;5.566;2022-12-13T03:41:47;-3.30;92.40
68764;DHT22;55754;52.038;5.566;2022-12-13T03:44:13;-3.30;92.40
68764;DHT22;55754;52.038;5.566;2022-12-13T03:46:39;-3.30;92.50
68764;DHT22;55754;52.038;5.566;2022-12-13T03:49:04;-3.30;92.40
68764;DHT22;55754;52.038;5.566;2022-12-13T03:51:30;-3.30;92.40
68764;DHT22;55754;52.038;5.566;2022-12-13T03:53:55;-3.30;92.20
68764;DHT22;55754;52.038;5.566;2022-12-13T03:56:21;-3.40;92.40
68764;DHT22;55754;52.038;5.566;2022-12-13T03:58:46;-3.40;92.40
68764;DHT22;55754;52.038;5.566;2022-12-13T04:01:14;-3.30;92.30
68764;DHT22;55754;52.038;5.566;2022-12-13T04:03:41;-3.30;92.30
68764;DHT22;55754;52.038;5.566;2022-12-13T04:06:07;-3.40;92.30
68764;DHT22;55754;52.038;5.566;2022-12-13T04:08:37;-3.30;92.40
68764;DHT22;55754;52.038;5.566;2022-12-13T04:11:03;-3.30;92.40
68764;DHT22;55754;52.038;5.566;2022-12-13T04:13:47;-3.30;92.40
68764;DHT22;55754;52.038;5.566;2022-12-13T04:16:13;-3.40;92.20
68764;DHT22;55754;52.038;5.566;2022-12-13T04:18:38;-3.40;92.30
68764;DHT22;55754;52.038;5.566;2022-12-13T04:21:04;-3.40;92.30
68764;DHT22;55754;52.038;5.566;2022-12-13T04:23:29;-3.40;92.30
68764;DHT22;55754;52.038;5.566;2022-12-13T04:25:55;-3.40;92.40
68764;DHT22;55754;52.038;5.566;2022-12-13T04:28:21;-3.40;92.40
68764;DHT22;55754;52.038;5.566;2022-12-13T04:30:46;-3.40;92.40
68764;DHT22;55754;52.038;5.566;2022-12-13T04:33:12;-3.50;92.20
68764;DHT22;55754;52.038;5.566;2022-12-13T04:35:38;-1.60;92.80
68764;DHT22;55754;52.038;5.566;2022-12-13T04:38:03;-3.50;92.40
68764;DHT22;55754;52.038;5.566;2022-12-13T04:40:29;-3.50;92.40
68764;DHT22;55754;52.038;5.566;2022-12-13T04:42:57;-3.50;92.50
68764;DHT22;55754;52.038;5.566;2022-12-13T04:45:23;-3.50;92.40
68764;DHT22;55754;52.038;5.566;2022-12-13T04:47:48;-3.50;92.40
68764;DHT22;55754;52.038;5.566;2022-12-13T04:50:14;-3.50;92.20
68764;DHT22;55754;52.038;5.566;2022-12-13T04:52:40;-3.50;92.70
68764;DHT22;55754;52.038;5.566;2022-12-13T04:55:06;-3.50;92.20
68764;DHT22;55754;52.038;5.566;2022-12-13T04:57:33;-3.50;92.30
68764;DHT22;55754;52.038;5.566;2022-12-13T04:59:59;-3.50;92.30
68764;DHT22;55754;52.038;5.566;2022-12-13T05:02:24;-3.40;92.40
68764;DHT22;55754;52.038;5.566;2022-12-13T05:04:50;-2.50;92.60
68764;DHT22;55754;52.038;5.566;2022-12-13T05:07:16;-3.40;92.50
68764;DHT22;55754;52.038;5.566;2022-12-13T05:09:41;-3.40;92.60
68764;DHT22;55754;52.038;5.566;2022-12-13T05:12:07;-3.40;92.70
68764;DHT22;55754;52.038;5.566;2022-12-13T05:14:33;-3.40;92.70
68764;DHT22;55754;52.038;5.566;2022-12-13T05:17:00;-3.40;93.00
68764;DHT22;55754;52.038;5.566;2022-12-13T05:19:26;-3.40;93.00
68764;DHT22;55754;52.038;5.566;2022-12-13T05:21:51;-3.40;92.80
68764;DHT22;55754;52.038;5.566;2022-12-13T05:24:17;-3.50;92.90
68764;DHT22;55754;52.038;5.566;2022-12-13T05:26:46;-3.50;92.90
68764;DHT22;55754;52.038;5.566;2022-12-13T05:29:11;-3.60;92.90
68764;DHT22;55754;52.038;5.566;2022-12-13T05:31:37;-3.50;93.10
68764;DHT22;55754;52.038;5.566;2022-12-13T05:34:02;-3.50;93.00
68764;DHT22;55754;52.038;5.566;2022-12-13T05:36:28;-3.50;93.10
68764;DHT22;55754;52.038;5.566;2022-12-13T05:38:54;-3.50;93.10
68764;DHT22;55754;52.038;5.566;2022-12-13T05:41:22;-3.50;93.50
68764;DHT22;55754;52.038;5.566;2022-12-13T05:43:50;-3.40;93.70
68764;DHT22;55754;52.038;5.566;2022-12-13T05:46:16;-3.40;93.60
68764;DHT22;55754;52.038;5.566;2022-12-13T05:48:42;-3.30;93.50
68764;DHT22;55754;52.038;5.566;2022-12-13T05:51:09;-3.40;93.40
68764;DHT22;55754;52.038;5.566;2022-12-13T05:53:34;-3.30;93.50
68764;DHT22;55754;52.038;5.566;2022-12-13T05:56:01;-3.30;93.40
68764;DHT22;55754;52.038;5.566;2022-12-13T05:58:27;-3.30;93.50
68764;DHT22;55754;52.038;5.566;2022-12-13T06:00:53;-3.30;93.60
68764;DHT22;55754;52.038;5.566;2022-12-13T06:03:18;-3.30;93.70
68764;DHT22;55754;52.038;5.566;2022-12-13T06:05:44;-3.30;93.50
68764;DHT22;55754;52.038;5.566;2022-12-13T06:08:10;-3.30;93.60
68764;DHT22;55754;52.038;5.566;2022-12-13T06:10:36;-3.30;93.60
68764;DHT22;55754;52.038;5.566;2022-12-13T06:13:02;-3.20;93.70
68764;DHT22;55754;52.038;5.566;2022-12-13T06:15:28;-3.30;93.50
68764;DHT22;55754;52.038;5.566;2022-12-13T06:17:54;-3.30;93.30
68764;DHT22;55754;52.038;5.566;2022-12-13T06:20:19;-3.30;93.10
68764;DHT22;55754;52.038;5.566;2022-12-13T06:22:45;-3.40;93.10
68764;DHT22;55754;52.038;5.566;2022-12-13T06:25:11;-3.40;93.10
68764;DHT22;55754;52.038;5.566;2022-12-13T06:27:36;-3.40;93.00
68764;DHT22;55754;52.038;5.566;2022-12-13T06:30:02;-3.40;93.10
68764;DHT22;55754;52.038;5.566;2022-12-13T06:32:31;-3.40;93.00
68764;DHT22;55754;52.038;5.566;2022-12-13T06:34:56;-3.50;92.90
68764;DHT22;55754;52.038;5.566;2022-12-13T06:37:21;-3.50;92.90
68764;DHT22;55754;52.038;5.566;2022-12-13T06:39:47;-3.50;93.00
68764;DHT22;55754;52.038;5.566;2022-12-13T06:45:06;-3.40;93.00
68764;DHT22;55754;52.038;5.566;2022-12-13T06:47:32;-3.50;92.90
68764;DHT22;55754;52.038;5.566;2022-12-13T06:49:57;-3.50;92.80
68764;DHT22;55754;52.038;5.566;2022-12-13T06:52:23;-3.50;93.00
68764;DHT22;55754;52.038;5.566;2022-12-13T06:54:48;-3.50;92.90
68764;DHT22;55754;52.038;5.566;2022-12-13T06:57:14;-3.50;92.80
68764;DHT22;55754;52.038;5.566;2022-12-13T06:59:39;-3.50;92.90
68764;DHT22;55754;52.038;5.566;2022-12-13T07:02:05;-3.50;93.00
68764;DHT22;55754;52.038;5.566;2022-12-13T07:04:31;-3.50;93.00
68764;DHT22;55754;52.038;5.566;2022-12-13T07:06:57;-3.50;93.00
68764;DHT22;55754;52.038;5.566;2022-12-13T07:09:23;-3.50;92.90
68764;DHT22;55754;52.038;5.566;2022-12-13T07:11:48;-3.50;93.10
68764;DHT22;55754;52.038;5.566;2022-12-13T07:14:14;-3.40;93.80
68764;DHT22;55754;52.038;5.566;2022-12-13T07:16:42;-3.40;93.80
68764;DHT22;55754;52.038;5.566;2022-12-13T07:19:08;-3.30;93.80
68764;DHT22;55754;52.038;5.566;2022-12-13T07:21:35;-3.30;93.90
68764;DHT22;55754;52.038;5.566;2022-12-13T07:24:02;-3.30;94.00
68764;DHT22;55754;52.038;5.566;2022-12-13T07:26:28;-3.30;93.80
68764;DHT22;55754;52.038;5.566;2022-12-13T07:28:56;-3.30;93.70
68764;DHT22;55754;52.038;5.566;2022-12-13T07:31:23;-3.30;93.50
68764;DHT22;55754;52.038;5.566;2022-12-13T07:33:49;-3.30;93.40
68764;DHT22;55754;52.038;5.566;2022-12-13T07:36:17;-3.30;93.40
68764;DHT22;55754;52.038;5.566;2022-12-13T07:38:43;-3.30;93.40
68764;DHT22;55754;52.038;5.566;2022-12-13T07:41:09;-3.30;93.30
68764;DHT22;55754;52.038;5.566;2022-12-13T07:43:35;-3.40;93.30
68764;DHT22;55754;52.038;5.566;2022-12-13T07:46:03;-3.40;93.20
68764;DHT22;55754;52.038;5.566;2022-12-13T07:48:29;-3.40;93.60
68764;DHT22;55754;52.038;5.566;2022-12-13T07:51:00;-3.30;93.30
68764;DHT22;55754;52.038;5.566;2022-12-13T07:53:25;-3.30;93.40
68764;DHT22;55754;52.038;5.566;2022-12-13T07:55:51;-3.30;93.30
68764;DHT22;55754;52.038;5.566;2022-12-13T07:58:26;-3.30;93.30
68764;DHT22;55754;52.038;5.566;2022-12-13T08:01:01;-3.30;93.30
68764;DHT22;55754;52.038;5.566;2022-12-13T08:03:28;-3.40;93.20
68764;DHT22;55754;52.038;5.566;2022-12-13T08:06:08;-3.40;93.30
68764;DHT22;55754;52.038;5.566;2022-12-13T08:08:35;-3.30;93.30
68764;DHT22;55754;52.038;5.566;2022-12-13T08:11:12;-3.40;93.30
68764;DHT22;55754;52.038;5.566;2022-12-13T08:13:39;-3.30;93.50
68764;DHT22;55754;52.038;5.566;2022-12-13T08:16:08;-3.30;93.40
68764;DHT22;55754;52.038;5.566;2022-12-13T08:18:33;-3.30;93.60
68764;DHT22;55754;52.038;5.566;2022-12-13T08:21:01;-3.30;93.50
68764;DHT22;55754;52.038;5.566;2022-12-13T08:23:29;-3.20;93.60
68764;DHT22;55754;52.038;5.566;2022-12-13T08:25:55;-3.20;93.60
68764;DHT22;55754;52.038;5.566;2022-12-13T08:28:22;-3.10;93.80
68764;DHT22;55754;52.038;5.566;2022-12-13T08:30:47;-3.00;93.80
68764;DHT22;55754;52.038;5.566;2022-12-13T08:33:14;-3.00;93.70
68764;DHT22;55754;52.038;5.566;2022-12-13T08:35:39;-2.90;93.70
68764;DHT22;55754;52.038;5.566;2022-12-13T08:38:05;-2.70;94.10
68764;DHT22;55754;52.038;5.566;2022-12-13T08:40:31;-2.70;94.00
68764;DHT22;55754;52.038;5.566;2022-12-13T08:42:57;-2.60;93.90
68764;DHT22;55754;52.038;5.566;2022-12-13T08:45:22;-2.50;93.90
68764;DHT22;55754;52.038;5.566;2022-12-13T08:47:48;-2.50;93.70
68764;DHT22;55754;52.038;5.566;2022-12-13T08:50:15;-2.40;93.70
68764;DHT22;55754;52.038;5.566;2022-12-13T08:52:40;-2.30;93.60
68764;DHT22;55754;52.038;5.566;2022-12-13T08:55:11;-2.30;93.50
68764;DHT22;55754;52.038;5.566;2022-12-13T08:57:37;-2.20;93.60
68764;DHT22;55754;52.038;5.566;2022-12-13T09:00:04;-2.20;93.40
68764;DHT22;55754;52.038;5.566;2022-12-13T09:02:30;-2.20;93.40
68764;DHT22;55754;52.038;5.566;2022-12-13T09:04:56;-2.10;93.70
68764;DHT22;55754;52.038;5.566;2022-12-13T09:07:21;-2.00;93.70
68764;DHT22;55754;52.038;5.566;2022-12-13T09:09:47;-1.80;93.80
68764;DHT22;55754;52.038;5.566;2022-12-13T09:12:12;-1.80;93.60
68764;DHT22;55754;52.038;5.566;2022-12-13T09:14:45;-1.70;93.50
68764;DHT22;55754;52.038;5.566;2022-12-13T09:17:11;-1.70;93.30
68764;DHT22;55754;52.038;5.566;2022-12-13T09:19:36;-1.70;93.40
68764;DHT22;55754;52.038;5.566;2022-12-13T09:22:02;-1.60;93.80
68764;DHT22;55754;52.038;5.566;2022-12-13T09:24:27;-1.60;94.00
68764;DHT22;55754;52.038;5.566;2022-12-13T09:26:53;-1.50;94.00
68764;DHT22;55754;52.038;5.566;2022-12-13T09:29:21;-1.50;93.90
68764;DHT22;55754;52.038;5.566;2022-12-13T09:31:47;-1.50;94.10
68764;DHT22;55754;52.038;5.566;2022-12-13T09:34:12;-1.40;94.30
68764;DHT22;55754;52.038;5.566;2022-12-13T09:36:38;-1.30;94.20
68764;DHT22;55754;52.038;5.566;2022-12-13T09:39:04;-1.20;94.20
68764;DHT22;55754;52.038;5.566;2022-12-13T09:42:02;-1.00;94.10
68764;DHT22;55754;52.038;5.566;2022-12-13T09:44:28;-0.90;93.70
68764;DHT22;55754;52.038;5.566;2022-12-13T09:47:00;-0.80;93.80
68764;DHT22;55754;52.038;5.566;2022-12-13T09:49:30;-0.80;93.60
68764;DHT22;55754;52.038;5.566;2022-12-13T09:51:59;-0.50;93.50
68764;DHT22;55754;52.038;5.566;2022-12-13T09:54:25;-0.80;93.30
68764;DHT22;55754;52.038;5.566;2022-12-13T09:56:53;-0.60;93.40
68764;DHT22;55754;52.038;5.566;2022-12-13T09:59:27;-0.60;93.30
68764;DHT22;55754;52.038;5.566;2022-12-13T10:01:55;-0.50;93.10
68764;DHT22;55754;52.038;5.566;2022-12-13T10:04:21;-0.50;93.10
68764;DHT22;55754;52.038;5.566;2022-12-13T10:06:51;-0.50;92.90
68764;DHT22;55754;52.038;5.566;2022-12-13T10:09:17;-0.50;92.80
68764;DHT22;55754;52.038;5.566;2022-12-13T10:11:52;-0.50;92.70
68764;DHT22;55754;52.038;5.566;2022-12-13T10:14:28;-0.40;92.40
68764;DHT22;55754;52.038;5.566;2022-12-13T10:16:56;-0.50;92.40
68764;DHT22;55754;52.038;5.566;2022-12-13T10:19:33;-0.40;92.50
68764;DHT22;55754;52.038;5.566;2022-12-13T10:22:00;-0.50;92.50
68764;DHT22;55754;52.038;5.566;2022-12-13T10:24:28;-0.50;92.50
68764;DHT22;55754;52.038;5.566;2022-12-13T10:27:09;-0.50;92.40
68764;DHT22;55754;52.038;5.566;2022-12-13T10:32:22;-0.50;92.40
68764;DHT22;55754;52.038;5.566;2022-12-13T10:34:47;-0.60;92.40
68764;DHT22;55754;52.038;5.566;2022-12-13T10:39:48;-0.60;92.60
68764;DHT22;55754;52.038;5.566;2022-12-13T10:42:16;-0.60;92.50
68764;DHT22;55754;52.038;5.566;2022-12-13T10:44:42;-0.60;92.40
68764;DHT22;55754;52.038;5.566;2022-12-13T10:47:26;-0.70;92.50
68764;DHT22;55754;52.038;5.566;2022-12-13T10:52:26;-0.60;93.00
68764;DHT22;55754;52.038;5.566;2022-12-13T10:54:53;-0.20;93.00
68764;DHT22;55754;52.038;5.566;2022-12-13T10:57:19;-0.40;92.70
68764;DHT22;55754;52.038;5.566;2022-12-13T10:59:47;-0.40;93.00
68764;DHT22;55754;52.038;5.566;2022-12-13T11:02:35;-0.40;92.60
68764;DHT22;55754;52.038;5.566;2022-12-13T11:05:28;-0.30;92.30
68764;DHT22;55754;52.038;5.566;2022-12-13T11:07:54;-0.20;92.30
68764;DHT22;55754;52.038;5.566;2022-12-13T11:10:26;-0.20;92.00
68764;DHT22;55754;52.038;5.566;2022-12-13T11:13:00;-0.20;91.90
68764;DHT22;55754;52.038;5.566;2022-12-13T11:15:27;-0.20;91.70
68764;DHT22;55754;52.038;5.566;2022-12-13T11:18:01;-0.10;91.60
68764;DHT22;55754;52.038;5.566;2022-12-13T11:20:33;-0.10;91.50
68764;DHT22;55754;52.038;5.566;2022-12-13T11:23:06;-0.10;91.50
68764;DHT22;55754;52.038;5.566;2022-12-13T11:25:40;0.00;91.50
68764;DHT22;55754;52.038;5.566;2022-12-13T11:28:39;-0.20;90.90
68764;DHT22;55754;52.038;5.566;2022-12-13T11:34:15;-0.20;91.60
68764;DHT22;55754;52.038;5.566;2022-12-13T11:37:05;-0.20;91.50
68764;DHT22;55754;52.038;5.566;2022-12-13T11:39:40;-0.20;91.50
68764;DHT22;55754;52.038;5.566;2022-12-13T11:42:09;-0.20;91.40
68764;DHT22;55754;52.038;5.566;2022-12-13T11:47:23;-0.10;91.30
68764;DHT22;55754;52.038;5.566;2022-12-13T11:49:50;0.00;91.10
68764;DHT22;55754;52.038;5.566;2022-12-13T11:52:37;0.00;91.60
68764;DHT22;55754;52.038;5.566;2022-12-13T11:55:36;0.10;91.60
68764;DHT22;55754;52.038;5.566;2022-12-13T11:58:05;0.10;91.40
68764;DHT22;55754;52.038;5.566;2022-12-13T12:00:39;0.10;91.20
68764;DHT22;55754;52.038;5.566;2022-12-13T12:03:16;0.00;91.10
68764;DHT22;55754;52.038;5.566;2022-12-13T12:06:06;0.00;91.20
68764;DHT22;55754;52.038;5.566;2022-12-13T12:09:01;0.10;91.30
68764;DHT22;55754;52.038;5.566;2022-12-13T12:16:48;0.10;91.30
68764;DHT22;55754;52.038;5.566;2022-12-13T12:19:36;0.10;91.60
68764;DHT22;55754;52.038;5.566;2022-12-13T12:28:09;0.00;91.30
68764;DHT22;55754;52.038;5.566;2022-12-13T12:37:09;0.00;91.20
68764;DHT22;55754;52.038;5.566;2022-12-13T12:39:52;0.00;91.20
68764;DHT22;55754;52.038;5.566;2022-12-13T12:42:41;-0.10;91.10
68764;DHT22;55754;52.038;5.566;2022-12-13T12:47:59;-0.10;91.20
68764;DHT22;55754;52.038;5.566;2022-12-13T12:55:59;0.10;91.40
68764;DHT22;55754;52.038;5.566;2022-12-13T12:58:34;0.10;91.40
68764;DHT22;55754;52.038;5.566;2022-12-13T13:03:41;0.10;91.10
68764;DHT22;55754;52.038;5.566;2022-12-13T13:06:18;0.20;91.10
68764;DHT22;55754;52.038;5.566;2022-12-13T13:11:13;0.20;90.80
68764;DHT22;55754;52.038;5.566;2022-12-13T13:13:46;0.20;90.80
68764;DHT22;55754;52.038;5.566;2022-12-13T13:18:59;0.10;90.40
68764;DHT22;55754;52.038;5.566;2022-12-13T13:26:38;0.00;90.70
68764;DHT22;55754;52.038;5.566;2022-12-13T13:34:47;-0.20;90.90
68764;DHT22;55754;52.038;5.566;2022-12-13T13:43:06;-0.20;90.80
68764;DHT22;55754;52.038;5.566;2022-12-13T13:45:57;-0.20;90.80
68764;DHT22;55754;52.038;5.566;2022-12-13T13:48:57;-0.20;90.70
68764;DHT22;55754;52.038;5.566;2022-12-13T13:51:32;-0.20;90.90
68764;DHT22;55754;52.038;5.566;2022-12-13T14:03:16;-0.20;90.60
68764;DHT22;55754;52.038;5.566;2022-12-13T14:06:16;-0.20;90.60
68764;DHT22;55754;52.038;5.566;2022-12-13T14:11:50;-0.20;90.80
68764;DHT22;55754;52.038;5.566;2022-12-13T14:31:13;-0.20;90.60
68764;DHT22;55754;52.038;5.566;2022-12-13T14:33:43;-0.20;90.80
68764;DHT22;55754;52.038;5.566;2022-12-13T14:36:15;-0.20;90.80
68764;DHT22;55754;52.038;5.566;2022-12-13T14:38:40;-0.30;90.70
68764;DHT22;55754;52.038;5.566;2022-12-13T14:41:15;-0.30;90.80
68764;DHT22;55754;52.038;5.566;2022-12-13T14:43:41;-0.30;90.80
68764;DHT22;55754;52.038;5.566;2022-12-13T14:46:07;-0.40;90.80
68764;DHT22;55754;52.038;5.566;2022-12-13T14:48:52;-0.40;90.80
68764;DHT22;55754;52.038;5.566;2022-12-13T14:51:33;-0.40;90.70
68764;DHT22;55754;52.038;5.566;2022-12-13T14:54:02;-0.50;90.60
68764;DHT22;55754;52.038;5.566;2022-12-13T14:56:28;-0.50;90.80
68764;DHT22;55754;52.038;5.566;2022-12-13T14:58:56;-0.50;90.80
68764;DHT22;55754;52.038;5.566;2022-12-13T15:01:30;-0.50;90.80
68764;DHT22;55754;52.038;5.566;2022-12-13T15:04:16;-0.50;90.80
68764;DHT22;55754;52.038;5.566;2022-12-13T15:06:43;-0.60;90.70
68764;DHT22;55754;52.038;5.566;2022-12-13T15:09:12;-0.60;90.60
68764;DHT22;55754;52.038;5.566;2022-12-13T15:11:44;-0.60;90.80
68764;DHT22;55754;52.038;5.566;2022-12-13T15:14:15;-0.60;91.00
68764;DHT22;55754;52.038;5.566;2022-12-13T15:16:50;-0.60;91.10
68764;DHT22;55754;52.038;5.566;2022-12-13T15:19:19;-0.60;91.20
68764;DHT22;55754;52.038;5.566;2022-12-13T15:22:00;-0.70;91.30
68764;DHT22;55754;52.038;5.566;2022-12-13T15:24:29;-0.70;91.60
68764;DHT22;55754;52.038;5.566;2022-12-13T15:26:56;-0.70;91.90
68764;DHT22;55754;52.038;5.566;2022-12-13T15:29:25;-0.80;91.70
68764;DHT22;55754;52.038;5.566;2022-12-13T15:31:52;-0.90;91.60
68764;DHT22;55754;52.038;5.566;2022-12-13T15:36:53;-0.80;91.80
68764;DHT22;55754;52.038;5.566;2022-12-13T15:39:19;-0.90;91.80
68764;DHT22;55754;52.038;5.566;2022-12-13T15:41:47;-0.90;91.80
68764;DHT22;55754;52.038;5.566;2022-12-13T15:44:35;-0.90;91.90
68764;DHT22;55754;52.038;5.566;2022-12-13T15:47:12;-0.90;91.80
68764;DHT22;55754;52.038;5.566;2022-12-13T15:49:43;-0.90;92.00
68764;DHT22;55754;52.038;5.566;2022-12-13T15:54:54;-1.00;91.90
68764;DHT22;55754;52.038;5.566;2022-12-13T15:57:25;-1.00;92.00
68764;DHT22;55754;52.038;5.566;2022-12-13T16:00:17;-1.00;91.80
68764;DHT22;55754;52.038;5.566;2022-12-13T16:03:11;-1.00;91.90
68764;DHT22;55754;52.038;5.566;2022-12-13T16:05:45;-1.00;92.00
68764;DHT22;55754;52.038;5.566;2022-12-13T16:08:31;-1.10;92.00
68764;DHT22;55754;52.038;5.566;2022-12-13T16:10:58;-1.10;92.00
68764;DHT22;55754;52.038;5.566;2022-12-13T16:13:29;-1.10;91.90
68764;DHT22;55754;52.038;5.566;2022-12-13T16:18:50;-1.10;92.00
68764;DHT22;55754;52.038;5.566;2022-12-13T16:21:16;-1.20;92.00
68764;DHT22;55754;52.038;5.566;2022-12-13T16:23:41;-1.20;92.00
68764;DHT22;55754;52.038;5.566;2022-12-13T16:26:11;-1.20;92.00
68764;DHT22;55754;52.038;5.566;2022-12-13T16:28:38;-1.20;92.10
68764;DHT22;55754;52.038;5.566;2022-12-13T16:31:24;-1.20;92.10
68764;DHT22;55754;52.038;5.566;2022-12-13T16:33:50;-1.20;92.10
68764;DHT22;55754;52.038;5.566;2022-12-13T16:36:16;-1.10;92.00
68764;DHT22;55754;52.038;5.566;2022-12-13T16:38:42;-1.20;92.00
68764;DHT22;55754;52.038;5.566;2022-12-13T16:41:08;-1.20;92.00
68764;DHT22;55754;52.038;5.566;2022-12-13T16:43:36;-1.20;92.20
68764;DHT22;55754;52.038;5.566;2022-12-13T16:46:03;-1.20;92.10
68764;DHT22;55754;52.038;5.566;2022-12-13T16:48:29;-1.20;92.20
68764;DHT22;55754;52.038;5.566;2022-12-13T16:50:55;-1.20;92.20
68764;DHT22;55754;52.038;5.566;2022-12-13T16:53:21;-1.10;92.10
68764;DHT22;55754;52.038;5.566;2022-12-13T16:55:53;-1.10;92.00
68764;DHT22;55754;52.038;5.566;2022-12-13T16:58:18;-1.20;92.00
68764;DHT22;55754;52.038;5.566;2022-12-13T17:00:45;-1.20;92.00
68764;DHT22;55754;52.038;5.566;2022-12-13T17:03:14;-1.10;92.00
68764;DHT22;55754;52.038;5.566;2022-12-13T17:05:41;-1.10;91.80
68764;DHT22;55754;52.038;5.566;2022-12-13T17:08:10;-1.10;91.70
68764;DHT22;55754;52.038;5.566;2022-12-13T17:10:37;-1.10;91.80
68764;DHT22;55754;52.038;5.566;2022-12-13T17:13:03;-1.20;91.70
68764;DHT22;55754;52.038;5.566;2022-12-13T17:15:29;-1.10;91.80
68764;DHT22;55754;52.038;5.566;2022-12-13T17:17:54;-1.10;91.80
68764;DHT22;55754;52.038;5.566;2022-12-13T17:20:20;-1.10;91.80
68764;DHT22;55754;52.038;5.566;2022-12-13T17:22:46;-1.10;91.70
68764;DHT22;55754;52.038;5.566;2022-12-13T17:25:12;-1.10;91.70
68764;DHT22;55754;52.038;5.566;2022-12-13T17:27:38;-1.10;91.80
68764;DHT22;55754;52.038;5.566;2022-12-13T17:30:06;-1.20;91.70
68764;DHT22;55754;52.038;5.566;2022-12-13T17:32:33;-1.20;91.60
68764;DHT22;55754;52.038;5.566;2022-12-13T17:34:58;-1.20;91.60
68764;DHT22;55754;52.038;5.566;2022-12-13T17:37:24;-1.20;91.70
68764;DHT22;55754;52.038;5.566;2022-12-13T17:39:49;-1.10;91.70
68764;DHT22;55754;52.038;5.566;2022-12-13T17:42:15;-1.10;91.70
68764;DHT22;55754;52.038;5.566;2022-12-13T17:44:41;-1.20;91.40
68764;DHT22;55754;52.038;5.566;2022-12-13T17:47:07;-1.10;91.50
68764;DHT22;55754;52.038;5.566;2022-12-13T17:49:32;-1.10;91.50
68764;DHT22;55754;52.038;5.566;2022-12-13T17:51:58;-1.20;91.40